sensor_id;sensor_type;location;lat;lon;timestamp;pressure;altitude;pressure_sealevel;temperature;humidity
78584;BME280;67880;46.082;18.234;2023-03-01T00:00:06;100661.50;;;3.02;81.81
78584;BME280;67880;46.082;18.234;2023-03-01T00:00:38;100671.09;;;3.04;81.96
78584;BME280;67880;46.082;18.234;2023-03-01T00:01:13;100665.84;;;3.03;81.29
78584;BME280;67880;46.082;18.234;2023-03-01T00:01:45;100660.63;;;3.01;81.50
78584;BME280;67880;46.082;18.234;2023-03-01T00:02:17;100663.19;;;3.03;81.84
78584;BME280;67880;46.082;18.234;2023-03-01T00:02:49;100665.94;;;3.01;82.00
78584;BME280;67880;46.082;18.234;2023-03-01T00:03:20;100666.38;;;2.93;82.13
78584;BME280;67880;46.082;18.234;2023-03-01T00:03:53;100670.84;;;2.93;81.81
78584;BME280;67880;46.082;18.234;2023-03-01T00:04:26;100670.75;;;2.94;82.29
78584;BME280;67880;46.082;18.234;2023-03-01T00:04:59;100669.72;;;2.97;82.14
78584;BME280;67880;46.082;18.234;2023-03-01T00:05:30;100670.75;;;2.94;82.22
78584;BME280;67880;46.082;18.234;2023-03-01T00:06:04;100657.38;;;2.96;82.17
78584;BME280;67880;46.082;18.234;2023-03-01T00:06:36;100670.75;;;2.94;82.81
78584;BME280;67880;46.082;18.234;2023-03-01T00:07:09;100661.06;;;2.93;82.32
78584;BME280;67880;46.082;18.234;2023-03-01T00:07:40;100667.47;;;2.89;82.79
78584;BME280;67880;46.082;18.234;2023-03-01T00:08:12;100670.84;;;2.93;82.49
78584;BME280;67880;46.082;18.234;2023-03-01T00:08:45;100663.38;;;2.99;82.48
78584;BME280;67880;46.082;18.234;2023-03-01T00:09:17;100668.78;;;2.98;82.72
78584;BME280;67880;46.082;18.234;2023-03-01T00:09:49;100671.03;;;2.90;83.05
78584;BME280;67880;46.082;18.234;2023-03-01T00:10:20;100662.97;;;2.91;82.86
78584;BME280;67880;46.082;18.234;2023-03-01T00:11:14;100671.59;;;2.95;82.73
78584;BME280;67880;46.082;18.234;2023-03-01T00:11:48;100660.94;;;2.96;83.05
78584;BME280;67880;46.082;18.234;2023-03-01T00:12:20;100658.44;;;2.93;82.98
78584;BME280;67880;46.082;18.234;2023-03-01T00:12:52;100671.03;;;2.90;82.33
78584;BME280;67880;46.082;18.234;2023-03-01T00:13:24;100666.28;;;2.95;82.85
78584;BME280;67880;46.082;18.234;2023-03-01T00:13:58;100662.53;;;2.99;82.45
78584;BME280;67880;46.082;18.234;2023-03-01T00:14:31;100663.72;;;2.93;82.82
78584;BME280;67880;46.082;18.234;2023-03-01T00:15:03;100663.63;;;2.95;82.87
78584;BME280;67880;46.082;18.234;2023-03-01T00:15:39;100659.28;;;2.94;83.72
78584;BME280;67880;46.082;18.234;2023-03-01T00:16:15;100659.88;;;2.99;83.14
78584;BME280;67880;46.082;18.234;2023-03-01T00:16:48;100659.88;;;2.99;82.63
78584;BME280;67880;46.082;18.234;2023-03-01T00:17:20;100662.53;;;2.99;82.67
78584;BME280;67880;46.082;18.234;2023-03-01T00:17:51;100665.34;;;2.96;82.77
78584;BME280;67880;46.082;18.234;2023-03-01T00:18:24;100656.28;;;3.00;83.34
78584;BME280;67880;46.082;18.234;2023-03-01T00:18:56;100657.22;;;2.99;82.70
78584;BME280;67880;46.082;18.234;2023-03-01T00:19:28;100659.88;;;2.99;82.80
78584;BME280;67880;46.082;18.234;2023-03-01T00:20:00;100660.63;;;3.01;83.13
78584;BME280;67880;46.082;18.234;2023-03-01T00:20:32;100658.00;;;3.01;82.99
78584;BME280;67880;46.082;18.234;2023-03-01T00:21:04;100661.78;;;2.97;82.87
78584;BME280;67880;46.082;18.234;2023-03-01T00:21:36;100653.38;;;2.89;82.70
78584;BME280;67880;46.082;18.234;2023-03-01T00:22:08;100658.88;;;2.86;82.73
78584;BME280;67880;46.082;18.234;2023-03-01T00:22:40;100660.56;;;2.87;82.94
78584;BME280;67880;46.082;18.234;2023-03-01T00:23:12;100660.41;;;2.90;83.47
78584;BME280;67880;46.082;18.234;2023-03-01T00:23:43;100654.41;;;2.86;82.74
78584;BME280;67880;46.082;18.234;2023-03-01T00:24:15;100656.38;;;2.83;83.74
78584;BME280;67880;46.082;18.234;2023-03-01T00:24:48;100657.31;;;2.82;83.88
78584;BME280;67880;46.082;18.234;2023-03-01T00:25:20;100652.94;;;2.81;83.80
78584;BME280;67880;46.082;18.234;2023-03-01T00:25:52;100656.47;;;2.81;84.23
78584;BME280;67880;46.082;18.234;2023-03-01T00:26:25;100656.03;;;2.89;83.52
78584;BME280;67880;46.082;18.234;2023-03-01T00:26:57;100653.13;;;2.78;84.17
78584;BME280;67880;46.082;18.234;2023-03-01T00:27:29;100659.53;;;2.89;83.47
78584;BME280;67880;46.082;18.234;2023-03-01T00:28:00;100658.34;;;2.95;83.03
78584;BME280;67880;46.082;18.234;2023-03-01T00:28:32;100661.31;;;2.89;83.11
78584;BME280;67880;46.082;18.234;2023-03-01T00:29:04;100662.13;;;2.91;83.63
78584;BME280;67880;46.082;18.234;2023-03-01T00:29:36;100664.69;;;2.92;83.38
78584;BME280;67880;46.082;18.234;2023-03-01T00:30:08;100662.88;;;2.93;83.64
78584;BME280;67880;46.082;18.234;2023-03-01T00:30:40;100661.59;;;2.84;83.06
78584;BME280;67880;46.082;18.234;2023-03-01T00:31:20;100656.88;;;2.74;83.72
78584;BME280;67880;46.082;18.234;2023-03-01T00:31:53;100663.03;;;2.74;83.77
78584;BME280;67880;46.082;18.234;2023-03-01T00:32:24;100659.28;;;2.78;84.25
78584;BME280;67880;46.082;18.234;2023-03-01T00:32:57;100663.13;;;2.88;83.50
78584;BME280;67880;46.082;18.234;2023-03-01T00:33:28;100664.69;;;2.92;83.79
78584;BME280;67880;46.082;18.234;2023-03-01T00:34:03;100660.41;;;2.90;83.96
78584;BME280;67880;46.082;18.234;2023-03-01T00:34:35;100659.72;;;2.86;83.27
78584;BME280;67880;46.082;18.234;2023-03-01T00:35:07;100659.00;;;2.83;83.55
78584;BME280;67880;46.082;18.234;2023-03-01T00:35:39;100657.75;;;2.90;83.31
78584;BME280;67880;46.082;18.234;2023-03-01T00:36:13;100656.97;;;2.88;83.38
78584;BME280;67880;46.082;18.234;2023-03-01T00:36:46;100654.31;;;2.88;83.17
78584;BME280;67880;46.082;18.234;2023-03-01T00:37:17;100655.78;;;2.93;83.35
78584;BME280;67880;46.082;18.234;2023-03-01T00:37:49;100650.72;;;2.89;83.16
78584;BME280;67880;46.082;18.234;2023-03-01T00:38:29;100660.03;;;2.96;83.35
78584;BME280;67880;46.082;18.234;2023-03-01T00:39:04;100658.19;;;2.98;82.63
78584;BME280;67880;46.082;18.234;2023-03-01T00:39:36;100656.47;;;2.97;83.32
78584;BME280;67880;46.082;18.234;2023-03-01T00:40:08;100657.31;;;2.97;83.16
78584;BME280;67880;46.082;18.234;2023-03-01T00:40:41;100650.38;;;2.95;83.48
78584;BME280;67880;46.082;18.234;2023-03-01T00:41:15;100645.00;;;2.96;nan
78584;BME280;67880;46.082;18.234;2023-03-01T00:41:47;100652.88;;;2.98;83.29
78584;BME280;67880;46.082;18.234;2023-03-01T00:42:19;100651.66;;;2.88;83.40
78584;BME280;67880;46.082;18.234;2023-03-01T00:42:51;100653.38;;;2.89;83.24
78584;BME280;67880;46.082;18.234;2023-03-01T00:43:23;100653.13;;;2.93;83.08
78584;BME280;67880;46.082;18.234;2023-03-01T00:43:55;100644.13;;;2.96;82.99
78584;BME280;67880;46.082;18.234;2023-03-01T00:44:27;100652.97;;;2.96;83.23
78584;BME280;67880;46.082;18.234;2023-03-01T00:44:59;100644.31;;;2.93;82.88
78584;BME280;67880;46.082;18.234;2023-03-01T00:45:32;100639.97;;;2.92;83.09
78584;BME280;67880;46.082;18.234;2023-03-01T00:46:10;100643.72;;;2.88;83.67
78584;BME280;67880;46.082;18.234;2023-03-01T00:46:42;100645.75;;;2.83;83.21
78584;BME280;67880;46.082;18.234;2023-03-01T00:47:14;100652.28;;;2.77;83.77
78584;BME280;67880;46.082;18.234;2023-03-01T00:47:46;100642.25;;;2.82;83.98
78584;BME280;67880;46.082;18.234;2023-03-01T00:48:18;100641.31;;;2.83;83.87
78584;BME280;67880;46.082;18.234;2023-03-01T00:48:50;100645.50;;;2.87;83.70
78584;BME280;67880;46.082;18.234;2023-03-01T00:49:22;100641.84;;;2.90;83.50
78584;BME280;67880;46.082;18.234;2023-03-01T00:49:55;100640.22;;;2.87;83.48
78584;BME280;67880;46.082;18.234;2023-03-01T00:50:27;100647.31;;;2.87;83.74
78584;BME280;67880;46.082;18.234;2023-03-01T00:51:14;100633.63;;;2.79;83.61
78584;BME280;67880;46.082;18.234;2023-03-01T00:51:46;100637.38;;;2.75;84.32
78584;BME280;67880;46.082;18.234;2023-03-01T00:52:18;100639.69;;;2.81;84.30
78584;BME280;67880;46.082;18.234;2023-03-01T00:52:54;100638.00;;;2.80;84.17
78584;BME280;67880;46.082;18.234;2023-03-01T00:53:26;100636.88;;;2.84;84.42
78584;BME280;67880;46.082;18.234;2023-03-01T00:54:00;100624.47;;;2.84;84.37
78584;BME280;67880;46.082;18.234;2023-03-01T00:54:33;100635.66;;;2.89;83.42
78584;BME280;67880;46.082;18.234;2023-03-01T00:55:05;100633.09;;;2.88;83.21
78584;BME280;67880;46.082;18.234;2023-03-01T00:55:37;100629.50;;;2.89;84.02
78584;BME280;67880;46.082;18.234;2023-03-01T00:56:11;100637.47;;;2.89;83.08
78584;BME280;67880;46.082;18.234;2023-03-01T00:56:43;100630.53;;;2.86;83.81
78584;BME280;67880;46.082;18.234;2023-03-01T00:57:16;100631.25;;;2.90;83.57
78584;BME280;67880;46.082;18.234;2023-03-01T00:57:47;100626.84;;;2.89;83.58
78584;BME280;67880;46.082;18.234;2023-03-01T00:58:19;100627.56;;;2.92;83.45
78584;BME280;67880;46.082;18.234;2023-03-01T00:58:51;100627.72;;;2.89;84.03
78584;BME280;67880;46.082;18.234;2023-03-01T00:59:23;100629.59;;;2.87;83.92
78584;BME280;67880;46.082;18.234;2023-03-01T00:59:55;100624.19;;;2.89;83.56
78584;BME280;67880;46.082;18.234;2023-03-01T01:00:27;100619.69;;;2.91;83.35
78584;BME280;67880;46.082;18.234;2023-03-01T01:01:00;100628.50;;;2.91;83.11
78584;BME280;67880;46.082;18.234;2023-03-01T01:01:32;100630.28;;;2.91;83.58
78584;BME280;67880;46.082;18.234;2023-03-01T01:02:04;100621.66;;;2.87;83.47
78584;BME280;67880;46.082;18.234;2023-03-01T01:02:35;100618.84;;;2.90;83.60
78584;BME280;67880;46.082;18.234;2023-03-01T01:03:07;100629.78;;;2.84;83.50
78584;BME280;67880;46.082;18.234;2023-03-01T01:03:39;100626.53;;;2.79;84.29
78584;BME280;67880;46.082;18.234;2023-03-01T01:04:12;100622.19;;;2.78;84.21
78584;BME280;67880;46.082;18.234;2023-03-01T01:04:45;100627.88;;;2.86;84.10
78584;BME280;67880;46.082;18.234;2023-03-01T01:05:17;100622.41;;;2.89;84.10
78584;BME280;67880;46.082;18.234;2023-03-01T01:05:53;100619.09;;;2.86;84.11
78584;BME280;67880;46.082;18.234;2023-03-01T01:06:34;100615.94;;;2.79;84.04
78584;BME280;67880;46.082;18.234;2023-03-01T01:07:06;100620.47;;;2.77;83.83
78584;BME280;67880;46.082;18.234;2023-03-01T01:07:38;100609.78;;;2.79;83.71
78584;BME280;67880;46.082;18.234;2023-03-01T01:08:11;100619.25;;;2.83;84.39
78584;BME280;67880;46.082;18.234;2023-03-01T01:08:42;100620.97;;;2.84;84.35
78584;BME280;67880;46.082;18.234;2023-03-01T01:09:16;100624.38;;;2.86;84.17
78584;BME280;67880;46.082;18.234;2023-03-01T01:09:48;100617.28;;;2.86;83.92
78584;BME280;67880;46.082;18.234;2023-03-01T01:10:20;100620.97;;;2.84;84.11
78584;BME280;67880;46.082;18.234;2023-03-01T01:10:52;100618.47;;;2.81;84.13
78584;BME280;67880;46.082;18.234;2023-03-01T01:11:26;100621.91;;;2.83;84.50
78584;BME280;67880;46.082;18.234;2023-03-01T01:11:58;100616.53;;;2.84;84.40
78584;BME280;67880;46.082;18.234;2023-03-01T01:12:30;100618.31;;;2.84;83.71
78584;BME280;67880;46.082;18.234;2023-03-01T01:13:03;100620.88;;;2.85;84.16
78584;BME280;67880;46.082;18.234;2023-03-01T01:13:36;100614.22;;;2.78;84.51
78584;BME280;67880;46.082;18.234;2023-03-01T01:14:08;100619.34;;;2.81;84.19
78584;BME280;67880;46.082;18.234;2023-03-01T01:14:40;100621.84;;;2.84;84.13
78584;BME280;67880;46.082;18.234;2023-03-01T01:15:13;100616.78;;;2.80;83.69
78584;BME280;67880;46.082;18.234;2023-03-01T01:15:47;100617.88;;;2.76;83.81
78584;BME280;67880;46.082;18.234;2023-03-01T01:16:22;100621.38;;;2.76;84.31
78584;BME280;67880;46.082;18.234;2023-03-01T01:16:54;100615.41;;;2.72;84.69
78584;BME280;67880;46.082;18.234;2023-03-01T01:17:26;100615.16;;;2.77;84.13
78584;BME280;67880;46.082;18.234;2023-03-01T01:17:58;100609.88;;;2.77;84.46
78584;BME280;67880;46.082;18.234;2023-03-01T01:18:29;100607.22;;;2.77;84.09
78584;BME280;67880;46.082;18.234;2023-03-01T01:19:02;100610.03;;;2.74;83.79
78584;BME280;67880;46.082;18.234;2023-03-01T01:19:34;100604.63;;;2.76;84.35
78584;BME280;67880;46.082;18.234;2023-03-01T01:20:07;100609.94;;;2.76;84.54
78584;BME280;67880;46.082;18.234;2023-03-01T01:20:39;100603.78;;;2.75;84.73
78584;BME280;67880;46.082;18.234;2023-03-01T01:21:13;100613.09;;;2.66;84.82
78584;BME280;67880;46.082;18.234;2023-03-01T01:21:46;100600.69;;;2.67;84.38
78584;BME280;67880;46.082;18.234;2023-03-01T01:22:19;100606.69;;;2.70;84.68
78584;BME280;67880;46.082;18.234;2023-03-01T01:22:51;100605.75;;;2.71;84.30
78584;BME280;67880;46.082;18.234;2023-03-01T01:23:23;100604.63;;;2.76;84.81
78584;BME280;67880;46.082;18.234;2023-03-01T01:23:55;100604.47;;;2.79;84.88
78584;BME280;67880;46.082;18.234;2023-03-01T01:24:27;100602.56;;;2.81;84.73
78584;BME280;67880;46.082;18.234;2023-03-01T01:24:59;100613.19;;;2.81;84.24
78584;BME280;67880;46.082;18.234;2023-03-01T01:25:34;100604.28;;;2.82;83.99
78584;BME280;67880;46.082;18.234;2023-03-01T01:26:09;100604.19;;;2.83;84.00
78584;BME280;67880;46.082;18.234;2023-03-01T01:26:42;100608.56;;;2.84;83.93
78584;BME280;67880;46.082;18.234;2023-03-01T01:27:14;100604.38;;;2.80;84.07
78584;BME280;67880;46.082;18.234;2023-03-01T01:27:46;100605.13;;;2.82;84.17
78584;BME280;67880;46.082;18.234;2023-03-01T01:28:18;100601.47;;;2.85;84.01
78584;BME280;67880;46.082;18.234;2023-03-01T01:28:51;100607.88;;;2.81;84.40
78584;BME280;67880;46.082;18.234;2023-03-01T01:29:23;100604.47;;;2.79;83.97
78584;BME280;67880;46.082;18.234;2023-03-01T01:29:55;100604.47;;;2.79;84.22
78584;BME280;67880;46.082;18.234;2023-03-01T01:30:26;100591.56;;;2.72;84.77
78584;BME280;67880;46.082;18.234;2023-03-01T01:30:59;100600.16;;;2.76;84.20
78584;BME280;67880;46.082;18.234;2023-03-01T01:31:33;100599.25;;;2.77;84.52
78584;BME280;67880;46.082;18.234;2023-03-01T01:32:05;100596.00;;;2.72;84.59
78584;BME280;67880;46.082;18.234;2023-03-01T01:32:37;100605.41;;;2.78;84.32
78584;BME280;67880;46.082;18.234;2023-03-01T01:33:08;100601.47;;;2.69;84.79
78584;BME280;67880;46.082;18.234;2023-03-01T01:33:40;100596.09;;;2.70;84.61
78584;BME280;67880;46.082;18.234;2023-03-01T01:34:15;100605.81;;;2.70;84.71
78584;BME280;67880;46.082;18.234;2023-03-01T01:34:47;100595.81;;;2.75;84.75
78584;BME280;67880;46.082;18.234;2023-03-01T01:35:19;100599.25;;;2.77;84.57
78584;BME280;67880;46.082;18.234;2023-03-01T01:35:51;100600.16;;;2.76;85.13
78584;BME280;67880;46.082;18.234;2023-03-01T01:36:24;100596.75;;;2.74;84.67
78584;BME280;67880;46.082;18.234;2023-03-01T01:36:56;100596.94;;;2.71;85.24
78584;BME280;67880;46.082;18.234;2023-03-01T01:37:27;100600.34;;;2.73;85.01
78584;BME280;67880;46.082;18.234;2023-03-01T01:38:02;100598.47;;;2.75;84.49
78584;BME280;67880;46.082;18.234;2023-03-01T01:38:35;100600.03;;;2.79;84.78
78584;BME280;67880;46.082;18.234;2023-03-01T01:39:08;100593.94;;;2.77;84.57
78584;BME280;67880;46.082;18.234;2023-03-01T01:39:44;100595.81;;;2.75;84.29
78584;BME280;67880;46.082;18.234;2023-03-01T01:40:16;100587.78;;;2.77;85.02
78584;BME280;67880;46.082;18.234;2023-03-01T01:40:49;100587.63;;;2.80;84.46
78584;BME280;67880;46.082;18.234;2023-03-01T01:41:22;100594.88;;;2.76;84.89
78584;BME280;67880;46.082;18.234;2023-03-01T01:41:54;100587.88;;;2.75;85.39
78584;BME280;67880;46.082;18.234;2023-03-01T01:42:27;100586.06;;;2.76;84.79
78584;BME280;67880;46.082;18.234;2023-03-01T01:42:59;100589.56;;;2.76;85.53
78584;BME280;67880;46.082;18.234;2023-03-01T01:43:35;100592.31;;;2.75;85.68
78584;BME280;67880;46.082;18.234;2023-03-01T01:44:36;100590.50;;;2.75;85.40
78584;BME280;67880;46.082;18.234;2023-03-01T01:45:34;100594.97;;;2.75;84.97
78584;BME280;67880;46.082;18.234;2023-03-01T01:47:02;100598.41;;;2.61;86.06
78584;BME280;67880;46.082;18.234;2023-03-01T01:47:35;100593.69;;;2.66;85.33
78584;BME280;67880;46.082;18.234;2023-03-01T01:48:18;100595.50;;;2.65;85.62
78584;BME280;67880;46.082;18.234;2023-03-01T01:50:16;100590.94;;;2.67;85.32
78584;BME280;67880;46.082;18.234;2023-03-01T01:50:56;100584.56;;;2.71;85.21
78584;BME280;67880;46.082;18.234;2023-03-01T01:51:38;100590.94;;;2.67;85.22
78584;BME280;67880;46.082;18.234;2023-03-01T01:52:20;100591.66;;;2.71;85.93
78584;BME280;67880;46.082;18.234;2023-03-01T01:52:54;100591.47;;;2.74;85.11
78584;BME280;67880;46.082;18.234;2023-03-01T01:53:26;100587.97;;;2.74;85.12
78584;BME280;67880;46.082;18.234;2023-03-01T01:54:00;100592.50;;;2.71;85.33
78584;BME280;67880;46.082;18.234;2023-03-01T01:55:17;100589.75;;;2.73;84.74
78584;BME280;67880;46.082;18.234;2023-03-01T01:55:55;100587.00;;;2.75;85.60
78584;BME280;67880;46.082;18.234;2023-03-01T01:56:30;100591.31;;;2.77;85.07
78584;BME280;67880;46.082;18.234;2023-03-01T01:57:07;100589.56;;;2.76;85.06
78584;BME280;67880;46.082;18.234;2023-03-01T01:57:46;100592.41;;;2.73;84.73
78584;BME280;67880;46.082;18.234;2023-03-01T01:58:21;100589.91;;;2.70;85.70
78584;BME280;67880;46.082;18.234;2023-03-01T01:58:54;100591.56;;;2.72;84.94
78584;BME280;67880;46.082;18.234;2023-03-01T01:59:28;100595.16;;;2.71;85.51
78584;BME280;67880;46.082;18.234;2023-03-01T02:00:10;100595.06;;;2.73;85.62
78584;BME280;67880;46.082;18.234;2023-03-01T02:00:43;100585.75;;;2.66;85.49
78584;BME280;67880;46.082;18.234;2023-03-01T02:01:16;100593.34;;;2.72;85.70
78584;BME280;67880;46.082;18.234;2023-03-01T02:01:48;100589.84;;;2.71;85.67
78584;BME280;67880;46.082;18.234;2023-03-01T02:02:20;100588.81;;;2.74;85.31
78584;BME280;67880;46.082;18.234;2023-03-01T02:03:06;100587.72;;;2.78;84.98
78584;BME280;67880;46.082;18.234;2023-03-01T02:03:43;100589.50;;;2.78;85.44
78584;BME280;67880;46.082;18.234;2023-03-01T02:04:16;100585.06;;;2.78;84.72
78584;BME280;67880;46.082;18.234;2023-03-01T02:04:52;100590.25;;;2.80;84.86
78584;BME280;67880;46.082;18.234;2023-03-01T02:05:44;100584.72;;;2.84;84.56
78584;BME280;67880;46.082;18.234;2023-03-01T02:06:39;100585.81;;;2.80;84.85
78584;BME280;67880;46.082;18.234;2023-03-01T02:07:17;100582.22;;;2.81;84.62
78584;BME280;67880;46.082;18.234;2023-03-01T02:07:50;100584.78;;;2.83;85.29
78584;BME280;67880;46.082;18.234;2023-03-01T02:08:26;100583.91;;;2.82;85.00
78584;BME280;67880;46.082;18.234;2023-03-01T02:09:04;100587.34;;;2.84;84.75
78584;BME280;67880;46.082;18.234;2023-03-01T02:09:36;100578.63;;;2.82;84.68
78584;BME280;67880;46.082;18.234;2023-03-01T02:10:09;100579.41;;;2.84;85.21
78584;BME280;67880;46.082;18.234;2023-03-01T02:10:42;100586.31;;;2.87;84.86
78584;BME280;67880;46.082;18.234;2023-03-01T02:11:14;100581.97;;;2.86;84.69
78584;BME280;67880;46.082;18.234;2023-03-01T02:11:47;100577.50;;;2.86;84.72
78584;BME280;67880;46.082;18.234;2023-03-01T02:12:22;100577.41;;;2.88;85.32
78584;BME280;67880;46.082;18.234;2023-03-01T02:12:55;100580.25;;;2.85;84.43
78584;BME280;67880;46.082;18.234;2023-03-01T02:13:28;100575.31;;;2.79;84.74
78584;BME280;67880;46.082;18.234;2023-03-01T02:14:00;100576.91;;;2.81;84.90
78584;BME280;67880;46.082;18.234;2023-03-01T02:14:31;100578.34;;;2.87;84.96
78584;BME280;67880;46.082;18.234;2023-03-01T02:15:04;100578.47;;;2.85;84.91
78584;BME280;67880;46.082;18.234;2023-03-01T02:15:54;100582.72;;;2.88;84.92
78584;BME280;67880;46.082;18.234;2023-03-01T02:16:26;100579.31;;;2.86;84.48
78584;BME280;67880;46.082;18.234;2023-03-01T02:16:59;100572.19;;;2.86;85.08
78584;BME280;67880;46.082;18.234;2023-03-01T02:17:31;100566.06;;;2.86;84.25
78584;BME280;67880;46.082;18.234;2023-03-01T02:18:04;100568.44;;;2.90;85.10
78584;BME280;67880;46.082;18.234;2023-03-01T02:18:38;100562.09;;;2.93;84.55
78584;BME280;67880;46.082;18.234;2023-03-01T02:19:22;100569.09;;;2.94;84.77
78584;BME280;67880;46.082;18.234;2023-03-01T02:20:23;100569.66;;;2.85;84.16
78584;BME280;67880;46.082;18.234;2023-03-01T02:22:44;100569.91;;;2.80;85.12
78584;BME280;67880;46.082;18.234;2023-03-01T02:23:17;100578.19;;;2.90;85.15
78584;BME280;67880;46.082;18.234;2023-03-01T02:23:49;100565.69;;;2.92;85.08
78584;BME280;67880;46.082;18.234;2023-03-01T02:25:54;100565.44;;;2.96;85.13
78584;BME280;67880;46.082;18.234;2023-03-01T02:27:05;100569.00;;;2.95;84.40
78584;BME280;67880;46.082;18.234;2023-03-01T02:28:01;100563.63;;;2.97;84.37
78584;BME280;67880;46.082;18.234;2023-03-01T02:28:38;100558.34;;;2.97;84.75
78584;BME280;67880;46.082;18.234;2023-03-01T02:29:11;100564.41;;;2.99;84.66
78584;BME280;67880;46.082;18.234;2023-03-01T02:29:43;100561.00;;;2.97;84.48
78584;BME280;67880;46.082;18.234;2023-03-01T02:30:15;100561.66;;;3.01;84.38
78584;BME280;67880;46.082;18.234;2023-03-01T02:30:49;100559.94;;;2.99;84.22
78584;BME280;67880;46.082;18.234;2023-03-01T02:31:40;100560.63;;;3.03;84.56
78584;BME280;67880;46.082;18.234;2023-03-01T02:32:17;100558.91;;;3.02;84.01
78584;BME280;67880;46.082;18.234;2023-03-01T02:32:58;100563.28;;;3.03;83.72
78584;BME280;67880;46.082;18.234;2023-03-01T02:33:37;100557.97;;;3.03;84.47
78584;BME280;67880;46.082;18.234;2023-03-01T02:34:13;100559.09;;;2.99;83.33
78584;BME280;67880;46.082;18.234;2023-03-01T02:34:46;100551.88;;;3.01;84.03
78584;BME280;67880;46.082;18.234;2023-03-01T02:35:19;100555.41;;;3.02;84.01
78584;BME280;67880;46.082;18.234;2023-03-01T02:35:53;100556.19;;;3.04;83.66
78584;BME280;67880;46.082;18.234;2023-03-01T02:36:31;100561.56;;;3.02;84.14
78584;BME280;67880;46.082;18.234;2023-03-01T02:37:12;100551.28;;;2.96;83.71
78584;BME280;67880;46.082;18.234;2023-03-01T02:37:47;100560.13;;;2.96;84.14
78584;BME280;67880;46.082;18.234;2023-03-01T02:38:21;100559.84;;;3.01;84.42
78584;BME280;67880;46.082;18.234;2023-03-01T02:38:58;100558.41;;;2.95;83.92
78584;BME280;67880;46.082;18.234;2023-03-01T02:39:48;100559.53;;;2.91;84.70
78584;BME280;67880;46.082;18.234;2023-03-01T02:40:23;100559.94;;;2.99;84.25
78584;BME280;67880;46.082;18.234;2023-03-01T02:40:56;100560.63;;;3.03;83.86
78584;BME280;67880;46.082;18.234;2023-03-01T02:41:34;100556.25;;;3.02;84.60
78584;BME280;67880;46.082;18.234;2023-03-01T02:42:07;100556.19;;;3.04;84.40
78584;BME280;67880;46.082;18.234;2023-03-01T02:42:51;100555.91;;;3.08;84.08
78584;BME280;67880;46.082;18.234;2023-03-01T02:43:28;100557.63;;;3.09;83.79
78584;BME280;67880;46.082;18.234;2023-03-01T02:44:02;100555.72;;;3.11;84.18
78584;BME280;67880;46.082;18.234;2023-03-01T02:44:34;100559.59;;;3.06;83.51
78584;BME280;67880;46.082;18.234;2023-03-01T02:45:06;100557.69;;;3.08;83.98
78584;BME280;67880;46.082;18.234;2023-03-01T02:45:48;100554.03;;;3.10;83.39
78584;BME280;67880;46.082;18.234;2023-03-01T02:46:23;100560.34;;;3.08;83.85
78584;BME280;67880;46.082;18.234;2023-03-01T02:46:56;100560.84;;;3.14;83.92
78584;BME280;67880;46.082;18.234;2023-03-01T02:47:31;100561.97;;;3.10;83.66
78584;BME280;67880;46.082;18.234;2023-03-01T02:48:03;100567.44;;;3.07;83.96
78584;BME280;67880;46.082;18.234;2023-03-01T02:48:55;100561.84;;;2.97;84.40
78584;BME280;67880;46.082;18.234;2023-03-01T02:49:33;100559.00;;;3.01;85.22
78584;BME280;67880;46.082;18.234;2023-03-01T02:51:10;100565.06;;;3.03;84.73
78584;BME280;67880;46.082;18.234;2023-03-01T02:53:15;100560.00;;;3.14;83.41
78584;BME280;67880;46.082;18.234;2023-03-01T02:55:38;100564.44;;;3.13;83.91
78584;BME280;67880;46.082;18.234;2023-03-01T02:56:10;100557.63;;;3.09;84.00
78584;BME280;67880;46.082;18.234;2023-03-01T02:56:45;100552.31;;;3.09;84.32
78584;BME280;67880;46.082;18.234;2023-03-01T02:57:21;100568.03;;;3.12;84.17
78584;BME280;67880;46.082;18.234;2023-03-01T02:57:55;100556.69;;;3.10;84.18
78584;BME280;67880;46.082;18.234;2023-03-01T02:58:27;100558.28;;;3.13;83.72
78584;BME280;67880;46.082;18.234;2023-03-01T02:58:59;100558.19;;;3.14;84.37
78584;BME280;67880;46.082;18.234;2023-03-01T02:59:35;100552.72;;;3.17;83.95
78584;BME280;67880;46.082;18.234;2023-03-01T03:00:15;100549.38;;;3.14;84.17
78584;BME280;67880;46.082;18.234;2023-03-01T03:00:51;100557.25;;;3.15;84.02
78584;BME280;67880;46.082;18.234;2023-03-01T03:01:23;100555.53;;;3.14;84.62
78584;BME280;67880;46.082;18.234;2023-03-01T03:02:22;100551.38;;;3.10;84.13
78584;BME280;67880;46.082;18.234;2023-03-01T03:03:11;100552.47;;;3.06;84.16
78584;BME280;67880;46.082;18.234;2023-03-01T03:03:45;100551.13;;;2.99;84.47
78584;BME280;67880;46.082;18.234;2023-03-01T03:04:19;100548.88;;;3.07;84.28
78584;BME280;67880;46.082;18.234;2023-03-01T03:04:52;100543.13;;;3.15;84.00
78584;BME280;67880;46.082;18.234;2023-03-01T03:05:28;100553.56;;;3.18;84.38
78584;BME280;67880;46.082;18.234;2023-03-01T03:06:00;100550.22;;;3.14;83.82
78584;BME280;67880;46.082;18.234;2023-03-01T03:06:32;100552.13;;;3.12;84.48
78584;BME280;67880;46.082;18.234;2023-03-01T03:07:04;100553.84;;;3.13;84.20
78584;BME280;67880;46.082;18.234;2023-03-01T03:07:37;100554.78;;;3.12;84.10
78584;BME280;67880;46.082;18.234;2023-03-01T03:08:09;100554.59;;;3.15;84.13
78584;BME280;67880;46.082;18.234;2023-03-01T03:08:42;100553.56;;;3.18;84.23
78584;BME280;67880;46.082;18.234;2023-03-01T03:09:16;100560.00;;;3.14;84.64
78584;BME280;67880;46.082;18.234;2023-03-01T03:09:48;100552.88;;;3.14;83.90
78584;BME280;67880;46.082;18.234;2023-03-01T03:10:31;100547.66;;;3.13;84.36
78584;BME280;67880;46.082;18.234;2023-03-01T03:11:03;100547.28;;;3.05;84.63